createdAt,value
2022-11-06T00:02:09.832Z,1.89
2022-11-06T00:04:36.871Z,1.81
2022-11-06T00:07:03.999Z,1.94
2022-11-06T00:09:31.039Z,1.96
2022-11-06T00:11:58.335Z,1.98
2022-11-06T00:14:25.786Z,1.92
2022-11-06T00:16:52.870Z,1.98
2022-11-06T00:19:19.958Z,1.91
2022-11-06T00:21:47.065Z,2.04
2022-11-06T00:24:15.816Z,2.08
2022-11-06T00:26:43.663Z,1.92
2022-11-06T00:29:14.553Z,2.02
2022-11-06T00:31:41.768Z,2.07
2022-11-06T00:34:10.960Z,2.14
2022-11-06T00:36:38.612Z,2.19
2022-11-06T00:39:06.161Z,2.13
2022-11-06T00:41:33.188Z,2.17
2022-11-06T00:44:01.962Z,2.14
2022-11-06T00:46:29.564Z,2.08
2022-11-06T00:48:57.045Z,2.15
2022-11-06T00:51:27.867Z,2.26
2022-11-06T00:53:57.686Z,2.21
2022-11-06T00:56:25.461Z,2.14
2022-11-06T00:58:53.375Z,2.22
2022-11-06T01:01:23.362Z,2.23
2022-11-06T01:03:56.131Z,2.23
2022-11-06T01:06:25.423Z,2.14
2022-11-06T01:08:53.271Z,2.06
2022-11-06T01:11:37.512Z,2.04
2022-11-06T01:14:15.584Z,1.91
2022-11-06T01:16:42.723Z,1.76
2022-11-06T01:19:12.117Z,1.28
2022-11-06T01:21:40.983Z,1.57
2022-11-06T01:24:15.496Z,1.93
2022-11-06T01:27:04.794Z,1.96
2022-11-06T01:29:30.640Z,0.98
2022-11-06T01:31:57.807Z,1.98
2022-11-06T01:34:24.936Z,2.03
2022-11-06T01:36:52.618Z,2.07
2022-11-06T01:39:20.207Z,1.95
2022-11-06T01:41:50.237Z,2.06
2022-11-06T01:44:36.025Z,2.17
2022-11-06T01:47:15.796Z,2.04
2022-11-06T01:49:42.990Z,2.07
2022-11-06T01:52:12.800Z,2.03
2022-11-06T01:54:43.567Z,1.98
2022-11-06T01:57:11.923Z,2.06
2022-11-06T01:59:44.106Z,2.06
2022-11-06T02:02:12.241Z,2.06
2022-11-06T02:04:43.506Z,2.07
2022-11-06T02:07:12.178Z,0.99
2022-11-06T02:09:39.489Z,1.83
2022-11-06T02:12:47.171Z,1.91
2022-11-06T02:16:12.998Z,1.82
2022-11-06T02:18:58.403Z,1.77
2022-11-06T02:21:51.983Z,1.15
2022-11-06T02:24:46.900Z,1.85
2022-11-06T02:27:20.076Z,1.60
2022-11-06T02:30:02.694Z,1.92
2022-11-06T02:32:36.504Z,1.94
2022-11-06T02:35:13.591Z,1.94
2022-11-06T02:37:44.712Z,1.95
2022-11-06T02:40:14.764Z,1.93
2022-11-06T02:42:46.557Z,1.89
2022-11-06T02:45:17.413Z,1.99
2022-11-06T02:47:49.388Z,2.01
2022-11-06T02:50:30.408Z,2.04
2022-11-06T02:53:02.434Z,1.83
2022-11-06T02:55:41.762Z,1.87
2022-11-06T02:58:14.628Z,1.85
2022-11-06T03:00:47.487Z,1.81
2022-11-06T03:03:23.812Z,1.82
2022-11-06T03:05:56.694Z,1.78
2022-11-06T03:08:39.818Z,1.77
2022-11-06T03:11:12.633Z,1.75
2022-11-06T03:13:49.249Z,1.53
2022-11-06T03:16:47.943Z,1.81
2022-11-06T03:19:48.420Z,1.83
2022-11-06T03:22:27.010Z,1.78
2022-11-06T03:25:02.847Z,1.84
2022-11-06T03:27:34.957Z,1.69
2022-11-06T03:30:13.842Z,1.83
2022-11-06T03:32:52.319Z,1.83
2022-11-06T03:35:26.775Z,1.82
2022-11-06T03:38:30.920Z,1.82
2022-11-06T03:41:11.764Z,1.58
2022-11-06T03:43:43.197Z,1.67
2022-11-06T03:46:16.259Z,1.75
2022-11-06T03:49:06.490Z,1.90
2022-11-06T03:52:13.356Z,1.94
2022-11-06T03:54:47.918Z,1.76
2022-11-06T03:57:22.866Z,1.85
2022-11-06T03:59:56.155Z,1.76
2022-11-06T04:02:26.226Z,1.76
2022-11-06T04:04:59.035Z,1.85
2022-11-06T04:07:39.152Z,1.26
2022-11-06T04:10:29.272Z,1.74
2022-11-06T04:13:17.836Z,1.70
2022-11-06T04:15:51.173Z,1.43
2022-11-06T04:18:20.100Z,1.75
2022-11-06T04:21:18.758Z,1.11
2022-11-06T04:24:21.316Z,1.70
2022-11-06T04:26:56.655Z,1.70
2022-11-06T04:29:37.787Z,1.63
2022-11-06T04:32:11.197Z,1.60
2022-11-06T04:35:10.702Z,0.99
2022-11-06T04:38:00.198Z,1.26
2022-11-06T04:40:37.477Z,0.94
2022-11-06T04:43:34.394Z,1.44
2022-11-06T04:46:05.227Z,1.49
2022-11-06T04:48:33.228Z,1.45
2022-11-06T04:51:05.015Z,1.42
2022-11-06T04:53:33.697Z,1.27
2022-11-06T04:56:09.497Z,1.30
2022-11-06T04:58:36.554Z,1.39
2022-11-06T05:01:03.670Z,1.29
2022-11-06T05:03:30.781Z,1.39
2022-11-06T05:05:57.825Z,1.40
2022-11-06T05:08:26.105Z,1.35
2022-11-06T05:10:53.040Z,1.39
2022-11-06T05:13:20.165Z,1.18
2022-11-06T05:15:47.341Z,1.22
2022-11-06T05:18:14.593Z,1.35
2022-11-06T05:20:42.063Z,1.31
2022-11-06T05:23:09.191Z,1.38
2022-11-06T05:25:38.696Z,1.43
2022-11-06T05:28:07.260Z,1.27
2022-11-06T05:30:37.700Z,1.36
2022-11-06T05:33:04.729Z,1.22
2022-11-06T05:35:31.781Z,1.31
2022-11-06T05:38:02.895Z,1.40
2022-11-06T05:40:30.271Z,1.45
2022-11-06T05:42:57.381Z,1.50
2022-11-06T05:45:24.303Z,1.32
2022-11-06T05:47:51.344Z,1.58
2022-11-06T05:50:18.573Z,1.54
2022-11-06T05:52:45.553Z,1.57
2022-11-06T05:55:15.096Z,1.42
2022-11-06T05:57:42.861Z,1.53
2022-11-06T06:00:12.681Z,1.58
2022-11-06T06:02:40.296Z,1.64
2022-11-06T06:05:08.171Z,1.43
2022-11-06T06:07:35.584Z,1.52
2022-11-06T06:10:02.676Z,1.20
2022-11-06T06:12:30.005Z,1.12
2022-11-06T06:14:57.113Z,1.47
2022-11-06T06:17:24.298Z,1.12
2022-11-06T06:19:51.266Z,1.69
2022-11-06T06:22:18.862Z,1.68
2022-11-06T06:24:46.096Z,1.16
2022-11-06T06:27:13.093Z,1.64
2022-11-06T06:29:40.144Z,1.43
2022-11-06T06:32:07.284Z,1.83
2022-11-06T06:34:34.275Z,1.90
2022-11-06T06:37:01.189Z,1.91
2022-11-06T06:39:28.173Z,1.33
2022-11-06T06:41:55.153Z,1.87
2022-11-06T06:44:22.109Z,1.89
2022-11-06T06:46:49.001Z,1.29
2022-11-06T06:49:16.080Z,1.96
2022-11-06T06:51:43.317Z,2.03
2022-11-06T06:54:10.518Z,2.06
2022-11-06T06:56:37.532Z,2.07
2022-11-06T06:59:04.568Z,2.04
2022-11-06T07:01:31.789Z,2.02
2022-11-06T07:04:04.000Z,2.03
2022-11-06T07:06:31.514Z,2.09
2022-11-06T07:09:00.006Z,2.07
2022-11-06T07:11:27.038Z,1.97
2022-11-06T07:13:54.166Z,2.22
2022-11-06T07:16:21.972Z,2.06
2022-11-06T07:18:49.109Z,1.43
2022-11-06T07:21:16.187Z,2.07
2022-11-06T07:23:43.314Z,1.64
2022-11-06T07:26:10.460Z,2.17
2022-11-06T07:28:37.735Z,1.92
2022-11-06T07:31:07.829Z,1.72
2022-11-06T07:33:35.653Z,2.03
2022-11-06T07:36:10.437Z,2.17
2022-11-06T07:38:39.295Z,2.14
2022-11-06T07:41:09.268Z,2.15
2022-11-06T07:43:36.840Z,2.17
2022-11-06T07:46:06.814Z,1.85
2022-11-06T07:48:34.443Z,2.06
2022-11-06T07:51:06.585Z,2.09
2022-11-06T07:53:33.977Z,2.13
2022-11-06T07:56:01.423Z,2.11
2022-11-06T07:58:28.710Z,2.10
2022-11-06T08:00:58.599Z,2.30
2022-11-06T08:03:30.079Z,2.02
2022-11-06T08:06:03.158Z,2.11
2022-11-06T08:08:31.557Z,2.13
2022-11-06T08:11:09.425Z,2.21
2022-11-06T08:13:38.724Z,2.16
2022-11-06T08:16:10.660Z,2.38
2022-11-06T08:18:38.467Z,2.35
2022-11-06T08:21:07.148Z,2.43
2022-11-06T08:23:35.608Z,2.38
2022-11-06T08:26:05.538Z,2.26
2022-11-06T08:28:32.551Z,2.16
2022-11-06T08:31:03.916Z,2.22
2022-11-06T08:33:30.955Z,2.24
2022-11-06T08:36:01.836Z,2.25
2022-11-06T08:38:28.917Z,2.33
2022-11-06T08:40:56.037Z,2.43
2022-11-06T08:43:27.510Z,2.15
2022-11-06T08:45:54.545Z,2.15
2022-11-06T08:48:21.521Z,2.16
2022-11-06T08:50:48.709Z,1.73
2022-11-06T08:53:16.275Z,2.36
2022-11-06T08:55:44.738Z,1.73
2022-11-06T08:58:11.794Z,2.27
2022-11-06T09:00:38.896Z,2.10
2022-11-06T09:03:10.139Z,2.06
2022-11-06T09:05:41.624Z,2.03
2022-11-06T09:08:09.802Z,2.11
2022-11-06T09:10:38.009Z,2.26
2022-11-06T09:13:05.099Z,2.21
2022-11-06T09:15:32.194Z,1.83
2022-11-06T09:17:59.256Z,2.22
2022-11-06T09:20:27.142Z,1.87
2022-11-06T09:22:54.931Z,2.51
2022-11-06T09:25:22.084Z,2.31
2022-11-06T09:27:58.482Z,2.30
2022-11-06T09:30:28.438Z,2.36
2022-11-06T09:32:58.265Z,2.48
2022-11-06T09:35:26.762Z,2.34
2022-11-06T09:37:53.815Z,2.34
2022-11-06T09:40:27.008Z,2.42
2022-11-06T09:43:07.770Z,1.99
2022-11-06T09:45:38.965Z,2.17
2022-11-06T09:48:24.692Z,2.30
2022-11-06T09:51:30.175Z,2.12
2022-11-06T09:54:21.769Z,2.06
2022-11-06T09:56:54.440Z,2.00
2022-11-06T09:59:22.104Z,1.94
2022-11-06T10:01:54.513Z,2.13
2022-11-06T10:04:36.777Z,2.18
2022-11-06T10:07:30.449Z,2.24
2022-11-06T10:09:58.193Z,2.28
2022-11-06T10:12:44.680Z,2.34
2022-11-06T10:15:30.791Z,2.40
2022-11-06T10:18:05.937Z,2.29
2022-11-06T10:21:02.713Z,2.19
2022-11-06T10:23:39.202Z,2.30
2022-11-06T10:26:28.689Z,2.27
2022-11-06T10:29:14.319Z,2.36
2022-11-06T10:31:55.732Z,2.35
2022-11-06T10:34:32.547Z,2.36
2022-11-06T10:37:12.341Z,2.18
2022-11-06T10:39:40.303Z,2.30
2022-11-06T10:42:15.156Z,1.99
2022-11-06T10:44:44.650Z,2.16
2022-11-06T10:47:47.621Z,2.49
2022-11-06T10:50:17.281Z,2.33
2022-11-06T10:52:56.784Z,2.39
2022-11-06T10:55:48.598Z,2.25
2022-11-06T10:58:21.632Z,2.43
2022-11-06T11:00:50.546Z,2.44
2022-11-06T11:03:34.724Z,2.35
2022-11-06T11:06:03.015Z,1.98
2022-11-06T11:08:49.446Z,2.47
2022-11-06T11:11:27.485Z,1.71
2022-11-06T11:13:57.411Z,2.51
2022-11-06T11:16:28.040Z,2.35
2022-11-06T11:19:24.398Z,2.34
2022-11-06T11:21:59.304Z,2.24
2022-11-06T11:24:26.998Z,2.29
2022-11-06T11:27:05.782Z,2.29
2022-11-06T11:29:50.198Z,2.31
2022-11-06T11:32:20.837Z,2.28
2022-11-06T11:34:56.911Z,2.27
2022-11-06T11:37:33.415Z,2.25
2022-11-06T11:40:36.710Z,1.73
2022-11-06T11:43:23.438Z,2.23
2022-11-06T11:46:17.549Z,2.44
2022-11-06T11:48:58.580Z,2.38
2022-11-06T11:51:38.511Z,2.13
2022-11-06T11:54:17.986Z,2.36
2022-11-06T11:57:05.356Z,2.37
2022-11-06T11:59:39.817Z,1.24
2022-11-06T12:02:34.592Z,2.25
2022-11-06T12:05:07.323Z,2.24
2022-11-06T12:07:43.431Z,2.15
2022-11-06T12:10:21.696Z,1.98
2022-11-06T12:12:51.828Z,2.02
2022-11-06T12:15:40.650Z,1.84
2022-11-06T12:18:14.127Z,1.74
2022-11-06T12:20:49.647Z,1.77
2022-11-06T12:23:25.245Z,1.77
2022-11-06T12:26:06.722Z,1.48
2022-11-06T12:28:38.259Z,1.69
2022-11-06T12:31:16.112Z,1.83
2022-11-06T12:34:06.543Z,1.20
2022-11-06T12:36:39.610Z,1.62
2022-11-06T12:39:14.634Z,1.83
2022-11-06T12:41:45.470Z,1.68
2022-11-06T12:44:14.868Z,1.68
2022-11-06T12:46:55.858Z,1.79
2022-11-06T12:49:48.854Z,1.44
2022-11-06T12:52:29.929Z,1.86
2022-11-06T12:55:03.053Z,2.00
2022-11-06T12:57:55.060Z,1.98
2022-11-06T13:00:31.432Z,1.80
2022-11-06T13:03:07.514Z,1.30
2022-11-06T13:06:05.930Z,1.92
2022-11-06T13:08:40.909Z,1.65
2022-11-06T13:11:32.008Z,1.69
2022-11-06T13:14:24.655Z,1.69
2022-11-06T13:17:11.366Z,1.76
2022-11-06T13:19:56.247Z,1.45
2022-11-06T13:22:38.184Z,1.71
2022-11-06T13:25:39.211Z,1.53
2022-11-06T13:28:26.816Z,1.68
2022-11-06T13:30:56.124Z,1.51
2022-11-06T13:33:36.645Z,1.09
2022-11-06T13:36:04.381Z,1.56
2022-11-06T13:39:05.696Z,1.59
2022-11-06T13:41:32.808Z,1.47
2022-11-06T13:44:16.232Z,1.47
2022-11-06T13:47:07.971Z,1.58
2022-11-06T13:49:56.044Z,1.59
2022-11-06T13:52:35.127Z,1.02
2022-11-06T13:55:28.872Z,1.62
2022-11-06T13:58:14.289Z,1.26
2022-11-06T14:00:53.704Z,1.05
2022-11-06T14:03:26.684Z,1.61
2022-11-06T14:06:19.017Z,1.61
2022-11-06T14:09:13.768Z,1.68
2022-11-06T14:11:44.335Z,1.57
2022-11-06T14:14:25.302Z,1.08
2022-11-06T14:17:13.065Z,1.74
2022-11-06T14:19:45.035Z,1.29
2022-11-06T14:22:30.224Z,1.79
2022-11-06T14:25:01.509Z,1.10
2022-11-06T14:27:30.179Z,1.77
2022-11-06T14:30:02.613Z,1.56
2022-11-06T14:32:36.210Z,1.80
2022-11-06T14:35:31.211Z,1.88
2022-11-06T14:38:10.898Z,1.92
2022-11-06T14:40:38.904Z,1.63
2022-11-06T14:43:26.947Z,2.02
2022-11-06T14:46:22.663Z,1.96
2022-11-06T14:48:56.802Z,1.89
2022-11-06T14:51:29.477Z,1.39
2022-11-06T14:54:00.121Z,1.08
2022-11-06T14:56:30.909Z,1.29
2022-11-06T14:59:04.418Z,1.56
2022-11-06T15:01:33.839Z,1.40
2022-11-06T15:04:05.559Z,1.57
2022-11-06T15:06:33.232Z,1.07
2022-11-06T15:09:08.017Z,1.71
2022-11-06T15:11:47.492Z,1.66
2022-11-06T15:14:14.966Z,1.54
2022-11-06T15:16:53.729Z,1.57
2022-11-06T15:19:25.221Z,1.50
2022-11-06T15:22:07.148Z,1.58
2022-11-06T15:24:49.289Z,1.42
2022-11-06T15:27:19.798Z,1.57
2022-11-06T15:29:52.109Z,1.70
2022-11-06T15:32:23.032Z,1.54
2022-11-06T15:35:09.621Z,1.58
2022-11-06T15:37:42.262Z,1.64
2022-11-06T15:40:31.610Z,1.65
2022-11-06T15:43:05.465Z,1.01
2022-11-06T15:45:32.590Z,1.47
2022-11-06T15:48:03.194Z,1.54
2022-11-06T15:50:31.574Z,1.49
2022-11-06T15:53:16.437Z,1.59
2022-11-06T15:55:45.794Z,1.66
2022-11-06T15:58:18.938Z,1.63
2022-11-06T16:00:46.388Z,1.21
2022-11-06T16:03:18.189Z,1.66
2022-11-06T16:05:46.902Z,1.84
2022-11-06T16:08:15.787Z,1.68
2022-11-06T16:10:44.946Z,1.57
2022-11-06T16:13:14.767Z,1.92
2022-11-06T16:15:45.550Z,1.34
2022-11-06T16:18:26.206Z,1.83
2022-11-06T16:21:21.079Z,1.99
2022-11-06T16:23:58.992Z,1.82
2022-11-06T16:26:32.471Z,1.97
2022-11-06T16:29:00.829Z,1.82
2022-11-06T16:31:29.600Z,1.67
2022-11-06T16:34:31.801Z,1.98
2022-11-06T16:37:03.762Z,1.84
2022-11-06T16:39:49.164Z,1.97
2022-11-06T16:42:22.995Z,2.00
2022-11-06T16:44:59.900Z,1.77
2022-11-06T16:47:27.055Z,1.28
2022-11-06T16:49:56.364Z,1.46
2022-11-06T16:52:30.424Z,1.52
2022-11-06T16:55:01.943Z,1.89
2022-11-06T16:57:56.428Z,1.86
2022-11-06T17:00:25.135Z,1.24
2022-11-06T17:02:54.028Z,1.85
2022-11-06T17:05:24.557Z,1.84
2022-11-06T17:08:22.786Z,1.93
2022-11-06T17:10:50.797Z,1.96
2022-11-06T17:13:20.122Z,1.73
2022-11-06T17:15:56.505Z,1.87
2022-11-06T17:18:27.934Z,1.32
2022-11-06T17:21:00.447Z,1.62
2022-11-06T17:23:30.105Z,1.25
2022-11-06T17:26:13.468Z,1.89
2022-11-06T17:28:40.651Z,1.48
2022-11-06T17:31:14.594Z,2.00
2022-11-06T17:33:42.638Z,1.99
2022-11-06T17:36:18.911Z,1.99
2022-11-06T17:38:47.054Z,1.86
2022-11-06T17:41:29.805Z,2.02
2022-11-06T17:43:58.115Z,2.02
2022-11-06T17:46:27.382Z,2.04
2022-11-06T17:48:55.348Z,2.02
2022-11-06T17:51:42.089Z,1.95
2022-11-06T17:54:10.082Z,1.95
2022-11-06T17:56:38.226Z,1.92
2022-11-06T17:59:06.829Z,1.97
2022-11-06T18:01:33.984Z,1.96
2022-11-06T18:04:01.630Z,1.83
2022-11-06T18:06:29.487Z,1.91
2022-11-06T18:08:57.361Z,1.91
2022-11-06T18:11:25.210Z,1.75
2022-11-06T18:13:55.375Z,1.91
2022-11-06T18:16:27.610Z,1.40
2022-11-06T18:18:55.476Z,1.86
2022-11-06T18:21:22.841Z,2.00
2022-11-06T18:23:50.514Z,1.91
2022-11-06T18:26:18.700Z,1.92
2022-11-06T18:28:45.661Z,2.09
2022-11-06T18:31:13.414Z,1.68
2022-11-06T18:33:40.463Z,2.07
2022-11-06T18:36:10.933Z,2.23
2022-11-06T18:38:38.958Z,1.61
2022-11-06T18:41:10.175Z,2.24
2022-11-06T18:43:37.656Z,1.58
2022-11-06T18:46:08.086Z,2.13
2022-11-06T18:48:35.144Z,1.40
2022-11-06T18:51:33.415Z,1.43
2022-11-06T18:54:05.145Z,1.99
2022-11-06T18:56:33.813Z,2.03
2022-11-06T18:59:00.860Z,2.01
2022-11-06T19:01:29.739Z,1.63
2022-11-06T19:03:56.929Z,2.05
2022-11-06T19:06:24.160Z,1.85
2022-11-06T19:08:51.132Z,2.08
2022-11-06T19:11:20.291Z,1.96
2022-11-06T19:13:48.528Z,2.10
2022-11-06T19:16:19.448Z,1.96
2022-11-06T19:21:32.208Z,2.17
2022-11-06T19:24:03.966Z,2.18
2022-11-06T19:26:33.650Z,2.17
2022-11-06T19:29:01.395Z,2.18
2022-11-06T19:31:29.991Z,2.07
2022-11-06T19:34:01.534Z,1.04
2022-11-06T19:36:30.074Z,2.09
2022-11-06T19:38:58.704Z,0.54
2022-11-06T19:41:26.940Z,1.45
2022-11-06T19:43:54.642Z,2.15
2022-11-06T19:46:26.037Z,1.92
2022-11-06T19:48:57.012Z,1.83
2022-11-06T19:51:25.985Z,1.84
2022-11-06T19:53:54.086Z,1.90
2022-11-06T19:56:21.954Z,1.66
2022-11-06T19:58:50.888Z,2.30
2022-11-06T20:01:19.026Z,2.22
2022-11-06T20:03:46.530Z,2.19
2022-11-06T20:06:14.575Z,2.27
2022-11-06T20:08:41.930Z,1.26
2022-11-06T20:11:15.307Z,2.25
2022-11-06T20:13:43.269Z,1.85
2022-11-06T20:16:19.020Z,2.35
2022-11-06T20:18:53.859Z,2.21
2022-11-06T20:21:21.832Z,1.69
2022-11-06T20:23:49.436Z,2.28
2022-11-06T20:26:16.492Z,2.43
2022-11-06T20:28:46.941Z,2.41
2022-11-06T20:31:16.138Z,2.46
2022-11-06T20:33:43.272Z,2.50
2022-11-06T20:36:21.049Z,2.49
2022-11-06T20:38:48.106Z,2.60
2022-11-06T20:41:15.268Z,2.30
2022-11-06T20:43:43.444Z,2.65
2022-11-06T20:46:11.811Z,2.17
2022-11-06T20:48:39.121Z,2.57
2022-11-06T20:51:09.319Z,2.51
2022-11-06T20:53:36.447Z,2.00
2022-11-06T20:56:06.983Z,2.55
2022-11-06T20:58:34.458Z,2.46
2022-11-06T21:01:06.420Z,2.61
2022-11-06T21:03:34.651Z,2.57
2022-11-06T21:06:01.954Z,1.98
2022-11-06T21:08:29.366Z,2.24
2022-11-06T21:11:06.154Z,2.68
2022-11-06T21:13:35.182Z,2.25
2022-11-06T21:16:08.880Z,2.58
2022-11-06T21:18:38.209Z,2.76
2022-11-06T21:21:07.592Z,2.57
2022-11-06T21:23:35.025Z,1.94
2022-11-06T21:26:14.349Z,2.58
2022-11-06T21:28:43.496Z,2.21
2022-11-06T21:31:13.308Z,2.72
2022-11-06T21:33:41.964Z,2.72
2022-11-06T21:36:11.941Z,2.59
2022-11-06T21:38:39.518Z,2.60
2022-11-06T21:41:10.502Z,2.27
2022-11-06T21:43:37.859Z,2.82
2022-11-06T21:46:07.000Z,2.21
2022-11-06T21:48:50.122Z,2.82
2022-11-06T21:51:20.766Z,2.18
2022-11-06T21:54:07.024Z,2.69
2022-11-06T21:56:35.545Z,1.92
2022-11-06T21:59:04.650Z,2.82
2022-11-06T22:01:32.736Z,2.82
2022-11-06T22:04:00.057Z,2.33
2022-11-06T22:06:28.798Z,2.89
2022-11-06T22:08:58.290Z,2.80
2022-11-06T22:11:31.278Z,2.42
2022-11-06T22:14:00.438Z,2.92
2022-11-06T22:16:30.449Z,2.91
2022-11-06T22:18:58.496Z,2.88
2022-11-06T22:21:28.399Z,2.92
2022-11-06T22:23:56.221Z,2.82
2022-11-06T22:26:25.705Z,2.94
2022-11-06T22:28:55.025Z,2.94
2022-11-06T22:31:22.883Z,2.95
2022-11-06T22:33:53.691Z,2.92
2022-11-06T22:36:22.333Z,2.40
2022-11-06T22:38:49.960Z,3.01
2022-11-06T22:41:19.626Z,2.79
2022-11-06T22:43:46.666Z,2.93
2022-11-06T22:46:23.134Z,2.92
2022-11-06T22:48:52.082Z,2.81
2022-11-06T22:51:22.124Z,2.66
2022-11-06T22:53:50.584Z,2.83
2022-11-06T22:56:18.039Z,2.64
2022-11-06T22:58:45.204Z,2.80
2022-11-06T23:01:12.574Z,2.07
2022-11-06T23:03:42.953Z,2.64
2022-11-06T23:06:10.048Z,2.69
2022-11-06T23:08:42.918Z,2.66
2022-11-06T23:11:14.561Z,2.80
2022-11-06T23:13:41.584Z,2.52
2022-11-06T23:16:14.571Z,1.23
2022-11-06T23:18:41.708Z,2.71
2022-11-06T23:21:16.459Z,2.73
2022-11-06T23:23:44.079Z,1.96
2022-11-06T23:26:16.835Z,2.69
2022-11-06T23:28:44.602Z,2.22
2022-11-06T23:31:13.296Z,2.50
2022-11-06T23:33:40.507Z,2.77
2022-11-06T23:36:17.881Z,1.75
2022-11-06T23:38:45.158Z,2.83
2022-11-06T23:41:35.686Z,2.70
2022-11-06T23:44:03.179Z,2.79
2022-11-06T23:46:32.636Z,2.70
2022-11-06T23:49:00.145Z,2.80
2022-11-06T23:51:27.604Z,2.53
2022-11-06T23:53:55.067Z,2.77
2022-11-06T23:56:22.065Z,2.70
2022-11-06T23:58:49.077Z,2.74
